sensor_id;sensor_type;location;lat;lon;timestamp;pressure;altitude;pressure_sealevel;temperature;humidity
44825;BME280;30542;47.928;2.138;2024-01-25T00:02:57;102053.22;;;20.74;47.03
44825;BME280;30542;47.928;2.138;2024-01-25T00:07:57;102049.50;;;20.75;47.15
44825;BME280;30542;47.928;2.138;2024-01-25T00:12:58;102029.34;;;20.72;47.26
44825;BME280;30542;47.928;2.138;2024-01-25T00:17:58;102025.84;;;20.72;47.12
44825;BME280;30542;47.928;2.138;2024-01-25T00:22:59;102014.56;;;20.70;47.16
44825;BME280;30542;47.928;2.138;2024-01-25T00:27:59;102025.28;;;20.70;47.25
44825;BME280;30542;47.928;2.138;2024-01-25T00:32:59;102026.28;;;20.69;47.21
44825;BME280;30542;47.928;2.138;2024-01-25T00:38:01;102032.69;;;20.68;47.24
44825;BME280;30542;47.928;2.138;2024-01-25T00:43:02;102025.34;;;20.63;47.23
44825;BME280;30542;47.928;2.138;2024-01-25T00:48:03;102034.81;;;20.66;47.26
44825;BME280;30542;47.928;2.138;2024-01-25T00:53:04;102020.81;;;20.64;47.32
44825;BME280;30542;47.928;2.138;2024-01-25T00:58:05;102022.91;;;20.62;47.42
44825;BME280;30542;47.928;2.138;2024-01-25T01:03:05;102015.91;;;20.60;47.53
44825;BME280;30542;47.928;2.138;2024-01-25T01:08:06;102008.09;;;20.59;47.38
44825;BME280;30542;47.928;2.138;2024-01-25T01:13:07;102015.56;;;20.57;47.48
44825;BME280;30542;47.928;2.138;2024-01-25T01:18:07;102013.91;;;20.56;47.33
44825;BME280;30542;47.928;2.138;2024-01-25T01:23:08;101999.69;;;20.55;47.35
44825;BME280;30542;47.928;2.138;2024-01-25T01:28:08;101994.59;;;20.54;47.22
44825;BME280;30542;47.928;2.138;2024-01-25T01:33:08;101996.66;;;20.52;47.44
44825;BME280;30542;47.928;2.138;2024-01-25T01:38:09;101989.69;;;20.51;47.47
44825;BME280;30542;47.928;2.138;2024-01-25T01:43:19;101987.25;;;20.49;47.47
44825;BME280;30542;47.928;2.138;2024-01-25T01:48:20;101973.66;;;20.44;47.30
44825;BME280;30542;47.928;2.138;2024-01-25T01:53:20;101976.94;;;20.46;47.43
44825;BME280;30542;47.928;2.138;2024-01-25T01:58:22;101980.66;;;20.45;47.49
44825;BME280;30542;47.928;2.138;2024-01-25T02:03:24;101975.31;;;20.45;47.25
44825;BME280;30542;47.928;2.138;2024-01-25T02:08:24;101974.13;;;20.41;47.38
44825;BME280;30542;47.928;2.138;2024-01-25T02:13:25;101970.41;;;20.42;47.41
44825;BME280;30542;47.928;2.138;2024-01-25T02:18:26;101967.13;;;20.40;47.49
44825;BME280;30542;47.928;2.138;2024-01-25T02:23:27;101975.16;;;20.40;47.47
44825;BME280;30542;47.928;2.138;2024-01-25T02:28:27;101969.00;;;20.40;47.62
44825;BME280;30542;47.928;2.138;2024-01-25T02:33:27;101965.75;;;20.38;47.49
44825;BME280;30542;47.928;2.138;2024-01-25T02:38:28;101954.91;;;20.32;47.42
44825;BME280;30542;47.928;2.138;2024-01-25T02:43:28;101956.28;;;20.35;47.56
44825;BME280;30542;47.928;2.138;2024-01-25T02:48:29;101956.28;;;20.35;47.44
44825;BME280;30542;47.928;2.138;2024-01-25T02:53:29;101963.50;;;20.34;47.49
44825;BME280;30542;47.928;2.138;2024-01-25T02:58:30;101968.03;;;20.34;47.52
44825;BME280;30542;47.928;2.138;2024-01-25T03:03:30;101969.09;;;20.33;47.45
44825;BME280;30542;47.928;2.138;2024-01-25T03:08:30;101961.06;;;20.33;47.44
44825;BME280;30542;47.928;2.138;2024-01-25T03:13:31;101949.75;;;20.31;47.44
44825;BME280;30542;47.928;2.138;2024-01-25T03:18:31;101946.28;;;20.30;47.49
44825;BME280;30542;47.928;2.138;2024-01-25T03:23:32;101948.13;;;20.30;47.45
44825;BME280;30542;47.928;2.138;2024-01-25T03:28:34;101948.38;;;20.28;47.52
44825;BME280;30542;47.928;2.138;2024-01-25T03:33:36;101937.88;;;20.27;47.56
44825;BME280;30542;47.928;2.138;2024-01-25T03:38:36;101932.75;;;20.25;47.22
44825;BME280;30542;47.928;2.138;2024-01-25T03:43:36;101944.28;;;20.26;47.43
44825;BME280;30542;47.928;2.138;2024-01-25T03:48:37;101943.47;;;20.25;47.15
44825;BME280;30542;47.928;2.138;2024-01-25T03:53:37;101954.41;;;20.24;47.49
44825;BME280;30542;47.928;2.138;2024-01-25T03:58:38;101953.22;;;20.20;47.37
44825;BME280;30542;47.928;2.138;2024-01-25T04:03:38;101955.41;;;20.23;47.31
44825;BME280;30542;47.928;2.138;2024-01-25T04:08:39;101955.66;;;20.21;47.39
44825;BME280;30542;47.928;2.138;2024-01-25T04:13:40;101934.78;;;20.11;47.54
44825;BME280;30542;47.928;2.138;2024-01-25T04:18:40;101946.22;;;20.19;47.38
44825;BME280;30542;47.928;2.138;2024-01-25T04:23:41;101954.22;;;20.19;47.25
44825;BME280;30542;47.928;2.138;2024-01-25T04:28:41;101952.59;;;20.18;47.49
44825;BME280;30542;47.928;2.138;2024-01-25T04:33:41;101958.19;;;20.16;47.48
44825;BME280;30542;47.928;2.138;2024-01-25T04:38:42;101950.38;;;20.15;47.41
44825;BME280;30542;47.928;2.138;2024-01-25T04:43:42;101953.88;;;20.15;47.44
44825;BME280;30542;47.928;2.138;2024-01-25T04:48:43;101946.06;;;20.14;47.38
44825;BME280;30542;47.928;2.138;2024-01-25T04:53:44;101945.25;;;20.13;47.55
44825;BME280;30542;47.928;2.138;2024-01-25T04:58:44;101936.06;;;20.09;47.33
44825;BME280;30542;47.928;2.138;2024-01-25T05:03:45;101937.47;;;20.11;47.38
44825;BME280;30542;47.928;2.138;2024-01-25T05:08:46;101939.66;;;20.15;47.40
44825;BME280;30542;47.928;2.138;2024-01-25T05:13:46;101925.03;;;20.17;47.40
44825;BME280;30542;47.928;2.138;2024-01-25T05:18:47;101919.09;;;20.15;47.40
44825;BME280;30542;47.928;2.138;2024-01-25T05:23:47;101923.25;;;20.29;47.20
44825;BME280;30542;47.928;2.138;2024-01-25T05:28:47;101913.47;;;20.35;47.21
44825;BME280;30542;47.928;2.138;2024-01-25T05:33:48;101908.84;;;20.42;47.09
44825;BME280;30542;47.928;2.138;2024-01-25T05:38:49;101899.09;;;20.48;47.01
44825;BME280;30542;47.928;2.138;2024-01-25T05:43:49;101898.44;;;20.52;47.08
44825;BME280;30542;47.928;2.138;2024-01-25T05:48:49;101908.22;;;20.58;47.15
44825;BME280;30542;47.928;2.138;2024-01-25T05:53:50;101900.56;;;20.62;47.04
44825;BME280;30542;47.928;2.138;2024-01-25T05:58:50;101917.00;;;20.66;46.81
44825;BME280;30542;47.928;2.138;2024-01-25T06:03:51;101920.84;;;20.70;46.88
44825;BME280;30542;47.928;2.138;2024-01-25T06:08:51;101921.19;;;20.73;46.85
44825;BME280;30542;47.928;2.138;2024-01-25T06:13:51;101923.66;;;20.75;46.77
44825;BME280;30542;47.928;2.138;2024-01-25T06:18:52;101931.69;;;20.75;46.91
44825;BME280;30542;47.928;2.138;2024-01-25T06:23:52;101929.34;;;20.78;46.93
44825;BME280;30542;47.928;2.138;2024-01-25T06:28:52;101931.47;;;20.88;47.32
44825;BME280;30542;47.928;2.138;2024-01-25T06:33:53;101937.19;;;20.92;47.62
44825;BME280;30542;47.928;2.138;2024-01-25T06:38:53;101939.97;;;20.97;48.04
44825;BME280;30542;47.928;2.138;2024-01-25T06:43:54;101921.91;;;20.92;48.22
44825;BME280;30542;47.928;2.138;2024-01-25T06:48:54;101944.63;;;21.01;48.40
44825;BME280;30542;47.928;2.138;2024-01-25T06:53:54;101942.78;;;21.02;48.29
44825;BME280;30542;47.928;2.138;2024-01-25T06:58:55;101935.34;;;21.04;48.22
44825;BME280;30542;47.928;2.138;2024-01-25T07:03:55;101936.97;;;21.05;48.36
44825;BME280;30542;47.928;2.138;2024-01-25T07:08:56;101932.41;;;21.05;48.27
44825;BME280;30542;47.928;2.138;2024-01-25T07:13:56;101925.19;;;21.06;48.27
44825;BME280;30542;47.928;2.138;2024-01-25T07:18:57;101919.84;;;21.06;48.16
44825;BME280;30542;47.928;2.138;2024-01-25T07:23:59;101922.50;;;21.06;48.69
44825;BME280;30542;47.928;2.138;2024-01-25T07:28:59;101914.72;;;21.04;49.07
44825;BME280;30542;47.928;2.138;2024-01-25T07:34:00;101910.16;;;21.05;49.43
44825;BME280;30542;47.928;2.138;2024-01-25T07:39:00;101921.69;;;21.05;50.01
44825;BME280;30542;47.928;2.138;2024-01-25T07:44:01;101922.28;;;21.07;50.40
44825;BME280;30542;47.928;2.138;2024-01-25T07:49:01;101919.84;;;21.06;50.41
44825;BME280;30542;47.928;2.138;2024-01-25T07:54:02;101921.25;;;21.08;50.09
44825;BME280;30542;47.928;2.138;2024-01-25T07:59:02;101915.06;;;21.08;50.08
44825;BME280;30542;47.928;2.138;2024-01-25T08:04:03;101909.00;;;21.13;49.82
44825;BME280;30542;47.928;2.138;2024-01-25T08:09:03;101900.53;;;21.16;49.82
44825;BME280;30542;47.928;2.138;2024-01-25T08:14:04;101908.56;;;21.16;49.59
44825;BME280;30542;47.928;2.138;2024-01-25T08:19:05;101917.75;;;21.20;49.37
44825;BME280;30542;47.928;2.138;2024-01-25T08:24:05;101904.38;;;21.20;49.26
44825;BME280;30542;47.928;2.138;2024-01-25T08:29:06;101897.72;;;21.22;49.57
44825;BME280;30542;47.928;2.138;2024-01-25T08:34:06;101917.88;;;21.25;50.08
44825;BME280;30542;47.928;2.138;2024-01-25T08:39:06;101910.41;;;21.27;50.50
44825;BME280;30542;47.928;2.138;2024-01-25T08:44:09;101904.00;;;21.28;50.79
44825;BME280;30542;47.928;2.138;2024-01-25T08:49:09;101908.53;;;21.27;50.69
44825;BME280;30542;47.928;2.138;2024-01-25T08:54:12;101913.09;;;21.27;50.51
44825;BME280;30542;47.928;2.138;2024-01-25T08:59:12;101914.72;;;21.28;50.43
44825;BME280;30542;47.928;2.138;2024-01-25T09:04:13;101913.88;;;21.27;50.14
44825;BME280;30542;47.928;2.138;2024-01-25T09:09:13;101906.09;;;21.26;50.07
44825;BME280;30542;47.928;2.138;2024-01-25T09:14:13;101909.59;;;21.26;49.95
44825;BME280;30542;47.928;2.138;2024-01-25T09:19:14;101917.41;;;21.28;49.80
44825;BME280;30542;47.928;2.138;2024-01-25T09:24:14;101926.28;;;21.28;49.60
44825;BME280;30542;47.928;2.138;2024-01-25T09:29:15;101930.81;;;21.28;49.64
44825;BME280;30542;47.928;2.138;2024-01-25T09:34:15;101942.34;;;21.28;49.53
44825;BME280;30542;47.928;2.138;2024-01-25T09:39:15;101939.19;;;21.31;49.29
44825;BME280;30542;47.928;2.138;2024-01-25T09:44:16;101939.81;;;21.33;49.27
44825;BME280;30542;47.928;2.138;2024-01-25T09:49:17;101945.97;;;21.34;49.16
44825;BME280;30542;47.928;2.138;2024-01-25T09:54:18;101950.28;;;21.35;49.18
44825;BME280;30542;47.928;2.138;2024-01-25T09:59:19;101949.25;;;21.36;49.07
44825;BME280;30542;47.928;2.138;2024-01-25T10:04:19;101951.09;;;21.35;48.92
44825;BME280;30542;47.928;2.138;2024-01-25T10:09:23;101959.97;;;21.36;49.02
44825;BME280;30542;47.928;2.138;2024-01-25T10:14:24;101955.44;;;21.37;48.81
44825;BME280;30542;47.928;2.138;2024-01-25T10:19:25;101964.28;;;21.37;48.74
44825;BME280;30542;47.928;2.138;2024-01-25T10:24:25;101958.69;;;21.39;48.51
44825;BME280;30542;47.928;2.138;2024-01-25T10:29:26;101954.13;;;21.39;48.50
44825;BME280;30542;47.928;2.138;2024-01-25T10:34:27;101958.69;;;21.39;48.48
44825;BME280;30542;47.928;2.138;2024-01-25T10:39:29;101952.50;;;21.38;48.43
44825;BME280;30542;47.928;2.138;2024-01-25T10:44:30;101955.19;;;21.38;48.57
44825;BME280;30542;47.928;2.138;2024-01-25T10:49:31;101958.69;;;21.39;48.44
44825;BME280;30542;47.928;2.138;2024-01-25T10:54:33;101955.19;;;21.38;48.46
44825;BME280;30542;47.928;2.138;2024-01-25T10:59:33;101916.59;;;21.39;48.32
44825;BME280;30542;47.928;2.138;2024-01-25T11:04:34;101902.19;;;21.40;48.31
44825;BME280;30542;47.928;2.138;2024-01-25T11:09:35;101888.44;;;21.37;48.42
44825;BME280;30542;47.928;2.138;2024-01-25T11:14:38;101885.84;;;21.42;48.12
44825;BME280;30542;47.928;2.138;2024-01-25T11:19:39;101887.47;;;21.43;48.08
44825;BME280;30542;47.928;2.138;2024-01-25T11:24:39;101881.91;;;21.44;48.01
44825;BME280;30542;47.928;2.138;2024-01-25T11:29:41;101878.16;;;21.45;48.00
44825;BME280;30542;47.928;2.138;2024-01-25T11:34:42;101872.78;;;21.45;48.11
44825;BME280;30542;47.928;2.138;2024-01-25T11:39:43;101864.75;;;21.45;47.90
44825;BME280;30542;47.928;2.138;2024-01-25T11:44:44;101853.22;;;21.45;47.87
44825;BME280;30542;47.928;2.138;2024-01-25T11:49:44;101836.41;;;21.49;47.66
44825;BME280;30542;47.928;2.138;2024-01-25T11:54:44;101835.97;;;21.52;47.79
44825;BME280;30542;47.928;2.138;2024-01-25T11:59:46;101830.91;;;21.56;47.69
44825;BME280;30542;47.928;2.138;2024-01-25T12:04:47;101831.72;;;21.56;47.69
44825;BME280;30542;47.928;2.138;2024-01-25T12:10:03;101810.38;;;21.62;47.63
44825;BME280;30542;47.928;2.138;2024-01-25T12:15:07;101800.22;;;21.64;47.39
44825;BME280;30542;47.928;2.138;2024-01-25T12:20:08;101793.59;;;21.66;47.52
44825;BME280;30542;47.928;2.138;2024-01-25T12:25:11;101782.84;;;21.66;47.31
44825;BME280;30542;47.928;2.138;2024-01-25T12:30:13;101778.31;;;21.67;47.46
44825;BME280;30542;47.928;2.138;2024-01-25T12:35:13;101777.50;;;21.66;47.36
44825;BME280;30542;47.928;2.138;2024-01-25T12:40:14;101778.31;;;21.67;47.38
44825;BME280;30542;47.928;2.138;2024-01-25T12:45:15;101777.25;;;21.68;47.19
44825;BME280;30542;47.928;2.138;2024-01-25T12:50:15;101756.84;;;21.67;47.00
44825;BME280;30542;47.928;2.138;2024-01-25T12:55:15;101753.38;;;21.66;47.09
44825;BME280;30542;47.928;2.138;2024-01-25T13:00:16;101753.59;;;21.65;47.08
44825;BME280;30542;47.928;2.138;2024-01-25T13:05:16;101756.03;;;21.66;47.18
44825;BME280;30542;47.928;2.138;2024-01-25T13:10:17;101754.41;;;21.65;47.12
44825;BME280;30542;47.928;2.138;2024-01-25T13:15:17;101747.75;;;21.68;47.06
44825;BME280;30542;47.928;2.138;2024-01-25T13:20:18;101735.88;;;21.64;47.17
44825;BME280;30542;47.928;2.138;2024-01-25T13:25:18;101723.53;;;21.63;47.27
44825;BME280;30542;47.928;2.138;2024-01-25T13:30:19;101717.56;;;21.60;47.07
44825;BME280;30542;47.928;2.138;2024-01-25T13:35:19;101716.78;;;21.60;47.12
44825;BME280;30542;47.928;2.138;2024-01-25T13:40:19;101707.09;;;21.59;47.08
44825;BME280;30542;47.928;2.138;2024-01-25T13:45:20;101693.69;;;21.59;47.19
44825;BME280;30542;47.928;2.138;2024-01-25T13:50:21;101688.34;;;21.59;47.05
44825;BME280;30542;47.928;2.138;2024-01-25T13:55:21;101690.22;;;21.58;47.07
44825;BME280;30542;47.928;2.138;2024-01-25T14:00:22;101673.31;;;21.58;47.07
44825;BME280;30542;47.928;2.138;2024-01-25T14:05:22;101675.91;;;21.53;47.21
44825;BME280;30542;47.928;2.138;2024-01-25T14:10:23;101688.59;;;21.57;47.01
44825;BME280;30542;47.928;2.138;2024-01-25T14:15:23;101681.28;;;21.53;47.17
44825;BME280;30542;47.928;2.138;2024-01-25T14:20:24;101693.94;;;21.57;47.12
44825;BME280;30542;47.928;2.138;2024-01-25T14:25:24;101696.63;;;21.57;46.99
44825;BME280;30542;47.928;2.138;2024-01-25T14:30:24;101685.09;;;21.57;46.95
44825;BME280;30542;47.928;2.138;2024-01-25T14:35:25;101677.06;;;21.57;47.16
44825;BME280;30542;47.928;2.138;2024-01-25T14:40:28;101685.91;;;21.57;47.13
44825;BME280;30542;47.928;2.138;2024-01-25T14:45:29;101672.50;;;21.57;47.08
44825;BME280;30542;47.928;2.138;2024-01-25T14:50:30;101657.22;;;21.58;47.76
44825;BME280;30542;47.928;2.138;2024-01-25T14:55:32;101668.63;;;21.65;48.05
44825;BME280;30542;47.928;2.138;2024-01-25T15:00:33;101665.22;;;21.70;48.12
44825;BME280;30542;47.928;2.138;2024-01-25T15:05:34;101671.72;;;21.74;48.25
44825;BME280;30542;47.928;2.138;2024-01-25T15:10:34;101676.00;;;21.75;48.26
44825;BME280;30542;47.928;2.138;2024-01-25T15:15:34;101663.66;;;21.74;48.31
44825;BME280;30542;47.928;2.138;2024-01-25T15:20:35;101647.56;;;21.74;48.15
44825;BME280;30542;47.928;2.138;2024-01-25T15:25:36;101665.53;;;21.73;48.07
44825;BME280;30542;47.928;2.138;2024-01-25T15:30:36;101672.19;;;21.71;48.18
44825;BME280;30542;47.928;2.138;2024-01-25T15:35:37;101667.06;;;21.69;48.28
44825;BME280;30542;47.928;2.138;2024-01-25T15:40:37;101661.59;;;21.64;48.23
44825;BME280;30542;47.928;2.138;2024-01-25T15:45:37;101659.72;;;21.65;48.14
44825;BME280;30542;47.928;2.138;2024-01-25T15:50:38;101655.44;;;21.64;47.60
44825;BME280;30542;47.928;2.138;2024-01-25T15:55:39;101653.22;;;21.60;47.61
44825;BME280;30542;47.928;2.138;2024-01-25T16:00:39;101651.84;;;21.58;47.76
44825;BME280;30542;47.928;2.138;2024-01-25T16:05:40;101659.66;;;21.59;47.60
44825;BME280;30542;47.928;2.138;2024-01-25T16:10:40;101643.56;;;21.59;47.74
44825;BME280;30542;47.928;2.138;2024-01-25T16:15:41;101654.53;;;21.58;47.58
44825;BME280;30542;47.928;2.138;2024-01-25T16:20:41;101649.50;;;21.62;47.51
44825;BME280;30542;47.928;2.138;2024-01-25T16:25:41;101642.50;;;21.60;47.52
44825;BME280;30542;47.928;2.138;2024-01-25T16:30:43;101639.81;;;21.60;47.69
44825;BME280;30542;47.928;2.138;2024-01-25T16:35:43;101625.88;;;21.58;47.48
44825;BME280;30542;47.928;2.138;2024-01-25T16:40:44;101639.81;;;21.60;47.67
44825;BME280;30542;47.928;2.138;2024-01-25T16:45:44;101641.47;;;21.62;47.60
44825;BME280;30542;47.928;2.138;2024-01-25T16:50:45;101634.47;;;21.60;47.46
44825;BME280;30542;47.928;2.138;2024-01-25T16:55:45;101634.72;;;21.59;47.67
44825;BME280;30542;47.928;2.138;2024-01-25T17:00:46;101642.75;;;21.59;47.62
44825;BME280;30542;47.928;2.138;2024-01-25T17:05:46;101629.53;;;21.52;47.40
44825;BME280;30542;47.928;2.138;2024-01-25T17:10:47;101637.66;;;21.57;47.43
44825;BME280;30542;47.928;2.138;2024-01-25T17:15:47;101638.47;;;21.58;47.42
44825;BME280;30542;47.928;2.138;2024-01-25T17:20:47;101636.59;;;21.58;47.16
44825;BME280;30542;47.928;2.138;2024-01-25T17:25:48;101641.34;;;21.56;47.24
44825;BME280;30542;47.928;2.138;2024-01-25T17:30:48;101638.69;;;21.56;47.27
44825;BME280;30542;47.928;2.138;2024-01-25T17:35:49;101630.41;;;21.58;47.32
44825;BME280;30542;47.928;2.138;2024-01-25T17:40:49;101639.25;;;21.58;47.42
44825;BME280;30542;47.928;2.138;2024-01-25T17:45:50;101636.59;;;21.58;47.29
44825;BME280;30542;47.928;2.138;2024-01-25T17:50:50;101629.59;;;21.57;47.43
44825;BME280;30542;47.928;2.138;2024-01-25T17:55:50;101632.84;;;21.59;47.26
44825;BME280;30542;47.928;2.138;2024-01-25T18:00:51;101632.03;;;21.59;47.21
44825;BME280;30542;47.928;2.138;2024-01-25T18:05:52;101636.09;;;21.62;47.39
44825;BME280;30542;47.928;2.138;2024-01-25T18:10:54;101643.09;;;21.63;47.20
44825;BME280;30542;47.928;2.138;2024-01-25T18:15:55;101639.34;;;21.64;47.22
44825;BME280;30542;47.928;2.138;2024-01-25T18:20:56;101634.47;;;21.60;47.18
44825;BME280;30542;47.928;2.138;2024-01-25T18:25:56;101632.63;;;21.61;47.22
44825;BME280;30542;47.928;2.138;2024-01-25T18:30:58;101642.28;;;21.62;47.24
44825;BME280;30542;47.928;2.138;2024-01-25T18:36:01;101616.28;;;21.63;47.23
44825;BME280;30542;47.928;2.138;2024-01-25T18:41:01;101619.50;;;21.65;47.43
44825;BME280;30542;47.928;2.138;2024-01-25T18:46:07;101620.56;;;21.64;47.33
44825;BME280;30542;47.928;2.138;2024-01-25T18:51:07;101620.56;;;21.64;47.46
44825;BME280;30542;47.928;2.138;2024-01-25T18:56:08;101617.91;;;21.64;47.53
44825;BME280;30542;47.928;2.138;2024-01-25T19:01:09;101611.72;;;21.63;47.74
44825;BME280;30542;47.928;2.138;2024-01-25T19:06:10;101616.53;;;21.61;47.63
44825;BME280;30542;47.928;2.138;2024-01-25T19:11:10;101619.69;;;21.58;47.71
44825;BME280;30542;47.928;2.138;2024-01-25T19:16:11;101618.28;;;21.55;47.77
44825;BME280;30542;47.928;2.138;2024-01-25T19:21:11;101622.75;;;21.50;47.90
44825;BME280;30542;47.928;2.138;2024-01-25T19:26:12;101627.88;;;21.51;47.79
44825;BME280;30542;47.928;2.138;2024-01-25T19:31:12;101626.72;;;21.47;47.75
44825;BME280;30542;47.928;2.138;2024-01-25T19:36:14;101630.94;;;21.43;47.94
44825;BME280;30542;47.928;2.138;2024-01-25T19:41:14;101638.66;;;21.40;47.98
44825;BME280;30542;47.928;2.138;2024-01-25T19:46:15;101637.28;;;21.37;47.82
44825;BME280;30542;47.928;2.138;2024-01-25T19:51:16;101645.81;;;21.34;47.96
44825;BME280;30542;47.928;2.138;2024-01-25T19:56:16;101646.88;;;21.33;48.01
44825;BME280;30542;47.928;2.138;2024-01-25T20:01:17;101651.84;;;21.29;48.00
44825;BME280;30542;47.928;2.138;2024-01-25T20:06:19;101652.91;;;21.28;48.00
44825;BME280;30542;47.928;2.138;2024-01-25T20:11:20;101644.19;;;21.21;47.96
44825;BME280;30542;47.928;2.138;2024-01-25T20:16:20;101633.47;;;21.21;48.05
44825;BME280;30542;47.928;2.138;2024-01-25T20:21:22;101637.56;;;21.24;47.84
44825;BME280;30542;47.928;2.138;2024-01-25T20:26:22;101623.56;;;21.22;47.87
44825;BME280;30542;47.928;2.138;2024-01-25T20:31:23;101617.66;;;21.20;48.09
44825;BME280;30542;47.928;2.138;2024-01-25T20:36:23;101623.81;;;21.20;47.89
44825;BME280;30542;47.928;2.138;2024-01-25T20:41:23;101623.50;;;21.17;48.01
44825;BME280;30542;47.928;2.138;2024-01-25T20:46:24;101632.81;;;21.14;48.21
44825;BME280;30542;47.928;2.138;2024-01-25T20:51:24;101642.97;;;21.12;47.99
44825;BME280;30542;47.928;2.138;2024-01-25T20:56:25;101637.25;;;21.08;48.23
44825;BME280;30542;47.928;2.138;2024-01-25T21:01:25;101643.69;;;21.07;48.04
44825;BME280;30542;47.928;2.138;2024-01-25T21:06:26;101641.22;;;21.06;48.25
44825;BME280;30542;47.928;2.138;2024-01-25T21:11:27;101629.94;;;21.04;48.18
44825;BME280;30542;47.928;2.138;2024-01-25T21:16:27;101628.00;;;20.99;48.16
44825;BME280;30542;47.928;2.138;2024-01-25T21:21:27;101628.78;;;21.00;48.24
44825;BME280;30542;47.928;2.138;2024-01-25T21:26:29;101645.09;;;20.98;48.28
44825;BME280;30542;47.928;2.138;2024-01-25T21:31:29;101646.41;;;20.96;48.09
44825;BME280;30542;47.928;2.138;2024-01-25T21:36:29;101648.25;;;20.95;48.08
44825;BME280;30542;47.928;2.138;2024-01-25T21:41:30;101661.88;;;20.94;48.05
44825;BME280;30542;47.928;2.138;2024-01-25T21:46:30;101656.75;;;20.92;48.05
44825;BME280;30542;47.928;2.138;2024-01-25T21:51:31;101646.88;;;20.81;48.07
44825;BME280;30542;47.928;2.138;2024-01-25T21:56:31;101658.28;;;20.88;47.94
44825;BME280;30542;47.928;2.138;2024-01-25T22:01:32;101651.78;;;20.84;47.94
44825;BME280;30542;47.928;2.138;2024-01-25T22:06:32;101648.53;;;20.82;47.98
44825;BME280;30542;47.928;2.138;2024-01-25T22:11:32;101650.38;;;20.81;48.05
44825;BME280;30542;47.928;2.138;2024-01-25T22:16:33;101649.81;;;20.79;48.09
44825;BME280;30542;47.928;2.138;2024-01-25T22:21:33;101635.03;;;20.77;48.03
44825;BME280;30542;47.928;2.138;2024-01-25T22:26:34;101632.34;;;20.77;48.08
44825;BME280;30542;47.928;2.138;2024-01-25T22:31:35;101634.69;;;20.73;47.97
44825;BME280;30542;47.928;2.138;2024-01-25T22:36:36;101652.59;;;20.73;47.87
44825;BME280;30542;47.928;2.138;2024-01-25T22:41:36;101662.16;;;20.69;48.07
44825;BME280;30542;47.928;2.138;2024-01-25T22:46:37;101644.81;;;20.71;48.02
44825;BME280;30542;47.928;2.138;2024-01-25T22:51:37;101645.63;;;20.72;47.91
44825;BME280;30542;47.928;2.138;2024-01-25T22:56:38;101646.69;;;20.71;47.75
44825;BME280;30542;47.928;2.138;2024-01-25T23:01:39;101652.84;;;20.71;47.93
44825;BME280;30542;47.928;2.138;2024-01-25T23:06:39;101644.00;;;20.71;47.86
44825;BME280;30542;47.928;2.138;2024-01-25T23:11:39;101639.38;;;20.66;47.87
44825;BME280;30542;47.928;2.138;2024-01-25T23:16:40;101646.91;;;20.69;48.16
44825;BME280;30542;47.928;2.138;2024-01-25T23:21:40;101632.97;;;20.67;47.77
44825;BME280;30542;47.928;2.138;2024-01-25T23:26:41;101634.81;;;20.67;48.00
44825;BME280;30542;47.928;2.138;2024-01-25T23:31:41;101637.72;;;20.65;47.78
44825;BME280;30542;47.928;2.138;2024-01-25T23:36:41;101640.66;;;20.64;47.89
44825;BME280;30542;47.928;2.138;2024-01-25T23:41:42;101644.72;;;20.66;47.86
44825;BME280;30542;47.928;2.138;2024-01-25T23:46:42;101641.69;;;20.63;47.90
44825;BME280;30542;47.928;2.138;2024-01-25T23:51:43;101645.44;;;20.62;48.08
44825;BME280;30542;47.928;2.138;2024-01-25T23:56:43;101643.78;;;20.60;48.11
